.
WxDataArchive / Data Records for 2008-08-06
2008-08-05 August 2008 2008-08-07

Data Records for Wednesday, 06 August 2008

Time	Temp	Chill	HIndex	Humid	Dewpt	 Wind 	HiWind	WindDir	Rain 	Barom 
-----	----	-----	------	-----	-----	------	------	-------	-----	----- 
00:00	72.7	72.7	72.7	86	68.3	0	0	---	0.00	29.896 
00:05	72.5	72.5	72.5	87	68.4	0	1	270	0.00	29.895 
00:10	72.1	72.1	72.1	87	68.0	0	1	270	0.00	29.895 
00:15	72.1	72.1	72.1	87	68.0	0	1	270	0.00	29.895 
00:20	72.0	72.0	72.0	87	67.9	0	1	270	0.00	29.897 
00:25	72.0	72.0	72.0	86	67.6	0	2	270	0.00	29.900 
00:30	72.0	72.0	72.0	86	67.6	0	1	270	0.00	29.899 
00:35	72.0	72.0	72.0	86	67.6	0	2	270	0.00	29.901 
00:40	71.8	71.8	71.8	86	67.4	0	1	270	0.00	29.908 
00:45	71.8	71.8	71.8	86	67.4	0	1	270	0.00	29.912 
00:50	71.8	71.8	71.8	87	67.7	0	1	270	0.00	29.912 
00:55	71.6	71.6	71.6	87	67.5	0	1	270	0.00	29.913 
01:00	71.5	71.5	71.5	87	67.4	0	1	270	0.00	29.912 
01:05	71.3	71.3	71.3	88	67.6	0	2	270	0.00	29.912 
01:10	71.3	71.3	71.3	88	67.6	0	1	270	0.00	29.912 
01:15	71.1	71.1	71.1	88	67.4	0	1	270	0.00	29.911 
01:20	71.1	71.1	71.1	88	67.4	0	1	270	0.00	29.908 
01:25	70.9	70.9	70.9	88	67.2	0	1	270	0.00	29.909 
01:30	70.8	70.8	70.8	89	67.4	0	1	270	0.00	29.907 
01:35	70.6	70.6	70.6	89	67.2	0	1	270	0.00	29.910 
01:40	70.4	70.4	70.4	89	67.0	0	1	270	0.00	29.910 
01:45	70.3	70.3	70.3	90	67.2	0	1	270	0.00	29.911 
01:50	70.3	70.3	70.3	90	67.2	0	1	270	0.00	29.911 
01:55	70.1	70.1	70.1	90	67.0	0	1	270	0.00	29.911 
02:00	69.9	69.9	69.9	90	66.8	0	1	270	0.00	29.912 
02:05	69.9	69.9	69.9	91	67.1	0	1	270	0.00	29.911 
02:10	69.8	69.8	69.8	91	67.0	0	1	270	0.00	29.910 
02:15	69.8	69.8	69.8	91	67.0	0	1	270	0.00	29.908 
02:20	69.8	69.8	69.8	91	67.0	0	1	270	0.00	29.909 
02:25	69.6	69.6	69.6	91	66.8	0	1	270	0.00	29.911 
02:30	69.6	69.6	69.6	91	66.8	0	0	---	0.00	29.912 
02:35	69.6	69.6	69.6	92	67.2	0	1	270	0.00	29.913 
02:40	69.4	69.4	69.4	92	67.0	0	2	270	0.00	29.915 
02:45	69.4	69.4	69.4	92	67.0	0	1	270	0.00	29.919 
02:50	69.3	69.3	69.3	92	66.9	0	1	270	0.00	29.922 
02:55	69.3	69.3	69.3	92	66.9	0	1	270	0.00	29.923 
03:00	69.3	69.3	69.3	92	66.9	0	1	270	0.00	29.924 
03:05	69.1	69.1	69.1	92	66.7	0	1	270	0.00	29.927 
03:10	69.1	69.1	69.1	93	67.0	0	1	270	0.00	29.926 
03:15	69.1	69.1	69.1	93	67.0	0	2	270	0.00	29.928 
03:20	69.1	69.1	69.1	93	67.0	0	1	270	0.00	29.929 
03:25	69.1	69.1	69.1	93	67.0	0	1	270	0.00	29.929 
03:30	69.1	69.1	69.1	93	67.0	0	1	270	0.00	29.929 
03:35	69.1	69.1	69.1	94	67.3	0	2	270	0.00	29.930 
03:40	69.1	69.1	69.1	94	67.3	0	1	270	0.00	29.930 
03:45	69.1	69.1	69.1	94	67.3	0	1	270	0.00	29.929 
03:50	68.9	68.9	68.9	94	67.1	0	1	292	0.00	29.928 
03:55	68.9	68.9	68.9	94	67.1	0	1	292	0.00	29.929 
04:00	68.9	68.9	68.9	94	67.1	0	1	292	0.00	29.925 
04:05	68.9	68.9	68.9	94	67.1	0	1	292	0.00	29.926 
04:10	68.8	68.8	68.8	94	67.0	0	1	292	0.00	29.922 
04:15	68.8	68.8	68.8	94	67.0	0	1	292	0.00	29.920 
04:20	68.6	68.6	68.6	94	66.8	0	1	292	0.00	29.918 
04:25	68.6	68.6	68.6	95	67.1	0	1	292	0.00	29.919 
04:30	68.6	68.6	68.6	95	67.1	0	1	292	0.00	29.920 
04:35	68.4	68.4	68.4	95	66.9	0	1	292	0.00	29.921 
04:40	68.4	68.4	68.4	95	66.9	0	1	292	0.00	29.922 
04:45	68.3	68.3	68.3	95	66.8	0	1	292	0.00	29.925 
04:50	68.3	68.3	68.3	95	66.8	0	1	292	0.00	29.928 
04:55	68.1	68.1	68.1	95	66.6	0	1	292	0.00	29.930 
05:00	68.1	68.1	68.1	95	66.6	0	1	292	0.00	29.931 
05:05	68.1	68.1	68.1	95	66.6	0	1	292	0.00	29.932 
05:10	67.9	67.9	67.9	95	66.4	0	3	292	0.00	29.934 
05:15	67.9	67.9	67.9	95	66.4	0	1	292	0.00	29.937 
05:20	67.8	67.8	67.8	95	66.3	0	1	292	0.00	29.936 
05:25	67.8	67.8	67.8	95	66.3	0	1	292	0.00	29.939 
05:30	67.6	67.6	67.6	95	66.1	0	1	292	0.00	29.942 
05:35	67.6	67.6	67.6	96	66.4	0	1	292	0.00	29.944 
05:40	67.6	67.6	67.6	96	66.4	0	1	292	0.00	29.946 
05:45	67.6	67.6	67.6	96	66.4	0	1	292	0.00	29.948 
05:50	67.6	67.6	67.6	96	66.4	0	1	292	0.00	29.948 
05:55	67.4	67.4	67.4	96	66.2	0	0	---	0.00	29.948 
06:00	67.4	67.4	67.4	96	66.2	0	1	292	0.00	29.951 
06:05	67.4	67.4	67.4	96	66.2	0	1	292	0.00	29.951 
06:10	67.4	67.4	67.4	96	66.2	0	1	292	0.00	29.950 
06:15	67.4	67.4	67.4	96	66.2	0	1	292	0.00	29.952 
06:20	67.6	67.6	67.6	96	66.4	0	0	---	0.00	29.955 
06:25	67.6	67.6	67.6	96	66.4	0	1	292	0.00	29.957 
06:30	67.6	67.6	67.6	96	66.4	0	0	---	0.00	29.960 
06:35	67.6	67.6	67.6	96	66.4	0	1	292	0.00	29.961 
06:40	67.6	67.6	67.6	96	66.4	0	1	292	0.00	29.963 
06:45	67.8	67.8	67.8	96	66.6	0	0	---	0.00	29.964 
06:50	67.9	67.9	67.9	96	66.7	0	0	---	0.00	29.964 
06:55	68.1	68.1	68.1	96	66.9	0	1	292	0.00	29.964 
07:00	68.1	68.1	68.1	96	66.9	0	1	292	0.00	29.964 
07:05	68.1	68.1	68.1	96	66.9	0	1	292	0.00	29.965 
07:10	68.3	68.3	68.3	96	67.1	0	2	292	0.00	29.964 
07:15	68.4	68.4	68.4	95	66.9	0	2	292	0.00	29.964 
07:20	68.6	68.6	68.6	95	67.1	0	1	292	0.00	29.964 
07:25	68.9	68.9	68.9	95	67.4	0	1	292	0.00	29.966 
07:30	69.3	69.3	69.3	95	67.8	0	1	292	0.00	29.966 
07:35	69.6	69.6	69.6	94	67.8	0	1	292	0.00	29.964 
07:40	69.9	69.9	69.9	93	67.8	0	1	292	0.00	29.964 
07:45	70.4	70.4	70.4	92	68.0	0	1	292	0.00	29.963 
07:50	70.6	70.6	70.6	90	67.5	0	1	292	0.00	29.962 
07:55	71.1	71.1	71.1	88	67.4	0	1	292	0.00	29.963 
08:00	71.8	71.8	71.8	88	68.0	0	2	292	0.00	29.961 
08:05	72.1	72.1	72.1	85	67.3	0	1	292	0.00	29.963 
08:10	72.7	72.7	72.7	84	67.6	0	1	292	0.00	29.962 
08:15	73.0	73.0	73.0	83	67.5	0	1	292	0.00	29.962 
08:20	73.3	73.3	73.3	81	67.1	0	2	292	0.00	29.961 
08:25	73.7	73.7	73.7	80	67.1	0	2	292	0.00	29.962 
08:30	74.0	74.0	74.0	79	67.1	0	2	292	0.00	29.962 
08:35	74.6	74.6	74.6	77	66.9	0	1	292	0.00	29.961 
08:40	74.7	74.7	74.7	78	67.4	0	1	292	0.00	29.961 
08:45	75.4	75.4	76.3	78	68.0	0	1	292	0.00	29.959 
08:50	75.6	75.6	77.0	74	66.7	0	1	292	0.00	29.960 
08:55	76.3	76.3	77.7	75	67.8	0	1	292	0.00	29.959 
09:00	77.0	77.0	78.7	73	67.7	0	1	292	0.00	29.956 
09:05	78.1	78.1	80.3	73	68.7	1	3	45	0.00	29.958 
09:10	78.8	78.8	81.1	70	68.2	0	2	45	0.00	29.956 
09:15	79.2	79.2	81.7	70	68.5	0	2	45	0.00	29.951 
09:20	79.4	79.4	81.7	67	67.5	0	2	45	0.00	29.953 
09:25	79.8	79.8	82.4	68	68.3	0	3	45	0.00	29.955 
09:30	79.6	79.6	82.0	67	67.7	0	2	45	0.00	29.952 
09:35	80.1	80.1	82.5	65	67.2	0	3	45	0.00	29.954 
09:40	80.1	80.1	82.6	66	67.7	0	1	45	0.00	29.952 
09:45	80.3	80.3	82.9	66	67.9	0	3	45	0.00	29.945 
09:50	80.5	80.5	82.9	64	67.2	0	1	45	0.00	29.945 
09:55	80.3	80.3	82.7	64	67.0	0	2	45	0.00	29.946 
10:00	80.3	80.3	82.2	60	65.1	0	2	45	0.00	29.943 
10:05	80.3	80.3	82.5	63	66.5	0	1	45	0.00	29.944 
10:10	80.3	80.3	82.3	61	65.6	0	3	45	0.00	29.950 
10:15	80.3	80.3	81.9	58	64.2	1	4	338	0.00	29.953 
10:20	80.5	80.5	82.3	59	64.8	1	3	248	0.00	29.952 
10:25	80.5	80.5	82.2	58	64.3	1	3	292	0.00	29.957 
10:30	80.7	80.7	82.3	57	64.0	1	3	338	0.00	29.959 
10:35	80.7	80.7	82.2	56	63.5	1	3	338	0.00	29.954 
10:40	81.2	81.2	83.0	58	65.0	0	2	315	0.00	29.954 
10:45	81.8	81.8	83.5	56	64.5	0	2	315	0.00	29.954 
10:50	82.4	82.4	84.4	57	65.6	0	1	315	0.00	29.952 
10:55	82.4	82.4	83.0	49	61.3	1	3	315	0.00	29.955 
11:00	82.4	82.4	83.2	50	61.9	1	3	315	0.00	29.957 
11:05	82.2	82.2	83.1	51	62.2	1	2	292	0.00	29.959 
11:10	82.4	82.4	83.2	50	61.9	1	3	270	0.00	29.959 
11:15	82.8	82.8	83.3	48	61.1	1	3	315	0.00	29.958 
11:20	82.6	82.6	83.1	48	60.9	1	3	292	0.00	29.956 
11:25	82.6	82.6	82.8	46	59.7	2	3	292	0.00	29.957 
11:30	82.8	82.8	83.0	46	59.9	1	3	292	0.00	29.955 
11:35	83.2	83.2	83.8	48	61.4	1	4	292	0.00	29.955 
11:40	82.8	82.8	83.0	46	59.9	1	4	248	0.00	29.952 
11:45	83.2	83.2	84.3	51	63.2	0	2	270	0.00	29.945 
11:50	83.8	83.8	84.7	49	62.6	1	3	270	0.00	29.942 
11:55	84.0	84.0	83.4	41	57.7	0	2	315	0.00	29.943 
12:00	84.1	84.1	83.7	42	58.5	0	3	315	0.00	29.947 
12:05	83.8	83.8	83.2	41	57.6	0	2	315	0.00	29.948 
12:10	83.6	83.6	83.4	43	58.7	1	3	315	0.00	29.949 
12:15	83.8	83.8	82.8	38	55.5	1	2	292	0.00	29.950 
12:20	83.2	83.2	82.5	40	56.3	1	3	292	0.00	29.949 
12:25	83.4	83.4	83.5	45	59.8	1	4	292	0.00	29.946 
12:30	83.2	83.2	83.3	45	59.6	1	3	0	0.00	29.947 
12:35	83.0	83.0	83.1	45	59.4	1	3	270	0.00	29.944 
12:40	83.2	83.2	82.4	39	55.6	1	4	270	0.00	29.943 
12:45	83.6	83.6	83.2	42	58.0	1	4	270	0.00	29.944 
12:50	84.0	84.0	83.8	43	59.1	1	2	315	0.00	29.942 
12:55	84.1	84.1	83.9	43	59.2	0	3	22	0.00	29.941 
13:00	84.0	84.0	83.3	40	57.0	2	4	270	0.00	29.941 
13:05	84.0	84.0	83.1	39	56.3	1	3	315	0.00	29.941 
13:10	83.8	83.8	83.1	40	56.9	1	3	315	0.00	29.938 
13:15	83.4	83.4	82.7	40	56.5	1	3	315	0.00	29.941 
13:20	84.0	84.0	83.1	39	56.3	1	2	315	0.00	29.943 
13:25	84.5	84.5	83.8	40	57.5	0	2	315	0.00	29.942 
13:30	85.1	85.1	84.3	39	57.3	0	2	315	0.00	29.939 
13:35	85.5	85.5	84.2	36	55.5	1	4	270	0.00	29.937 
13:40	84.7	84.7	83.8	39	57.0	1	3	338	0.00	29.933 
13:45	84.5	84.5	83.3	37	55.3	1	2	315	0.00	29.930 
13:50	84.1	84.1	83.2	39	56.4	2	5	270	0.00	29.930 
13:55	84.0	84.0	83.1	39	56.3	0	2	292	0.00	29.931 
14:00	84.0	84.0	83.0	38	55.6	1	3	292	0.00	29.932 
14:05	83.6	83.6	83.0	41	57.4	1	4	292	0.00	29.931 
14:10	83.2	83.2	82.5	40	56.3	2	5	292	0.00	29.933 
14:15	83.0	83.0	82.8	43	58.2	2	4	270	0.00	29.932 
14:20	83.2	83.2	83.0	43	58.3	1	2	292	0.00	29.930 
14:25	83.4	83.4	82.7	40	56.5	1	4	270	0.00	29.928 
14:30	82.8	82.8	82.4	42	57.3	1	2	292	0.00	29.927 
14:35	82.4	82.4	82.3	44	58.3	1	3	292	0.00	29.926 
14:40	82.0	82.0	81.9	44	57.9	1	2	270	0.00	29.924 
14:45	81.8	81.8	82.0	46	59.0	0	2	292	0.00	29.927 
14:50	81.6	81.6	81.2	41	55.6	1	3	315	0.00	29.928 
14:55	81.4	81.4	81.4	44	57.4	0	2	315	0.00	29.920 
15:00	81.8	81.8	81.6	43	57.1	1	3	315	0.00	29.924 
15:05	81.8	81.8	81.6	43	57.1	1	4	338	0.00	29.928 
15:10	82.2	82.2	82.1	44	58.1	1	3	270	0.00	29.930 
15:15	82.4	82.4	82.0	42	57.0	0	2	338	0.00	29.922 
15:20	82.4	82.4	81.9	41	56.3	1	3	315	0.00	29.925 
15:25	82.2	82.2	81.5	39	54.7	1	3	315	0.00	29.918 
15:30	82.6	82.6	82.0	40	55.8	1	2	315	0.00	29.914 
15:35	83.2	83.2	82.5	40	56.3	1	2	315	0.00	29.916 
15:40	83.8	83.8	82.9	39	56.2	1	4	292	0.00	29.917 
15:45	83.8	83.8	82.7	37	54.7	2	5	270	0.00	29.919 
15:50	83.2	83.2	82.4	39	55.6	1	3	292	0.00	29.927 
15:55	83.4	83.4	82.6	39	55.8	1	4	292	0.00	29.925 
16:00	83.4	83.4	82.6	39	55.8	0	3	270	0.00	29.915 
16:05	83.4	83.4	82.6	39	55.8	0	2	292	0.00	29.917 
16:10	83.4	83.4	82.7	40	56.5	0	1	292	0.00	29.918 
16:15	82.8	82.8	82.3	41	56.7	1	2	292	0.00	29.916 
16:20	82.8	82.8	82.0	39	55.3	1	5	292	0.00	29.918 
16:25	82.8	82.8	82.2	40	56.0	1	2	315	0.00	29.917 
16:30	82.8	82.8	82.0	39	55.3	0	2	315	0.00	29.915 
16:35	82.8	82.8	82.6	43	58.0	0	4	315	0.00	29.915 
16:40	82.6	82.6	82.0	40	55.8	1	4	270	0.00	29.914 
16:45	82.6	82.6	82.1	41	56.5	1	4	315	0.00	29.912 
16:50	82.2	82.2	81.9	42	56.8	1	4	292	0.00	29.910 
16:55	81.6	81.6	81.5	43	56.9	1	5	270	0.00	29.914 
17:00	81.4	81.4	81.4	44	57.4	1	2	315	0.00	29.917 
17:05	81.4	81.4	81.6	46	58.6	1	4	315	0.00	29.916 
17:10	81.2	81.2	81.3	45	57.8	2	4	270	0.00	29.916 
17:15	80.9	80.9	81.2	46	58.2	1	3	315	0.00	29.916 
17:20	80.5	80.5	80.8	46	57.8	1	3	270	0.00	29.916 
17:25	80.3	80.3	80.9	48	58.8	1	2	315	0.00	29.918 
17:30	80.3	80.3	80.8	47	58.2	1	3	292	0.00	29.919 
17:35	80.1	80.1	80.7	48	58.6	1	2	248	0.00	29.918 
17:40	80.1	80.1	80.8	49	59.2	0	2	248	0.00	29.916 
17:45	80.1	80.1	80.8	49	59.2	0	2	248	0.00	29.916 
17:50	79.9	79.9	80.7	50	59.6	0	2	248	0.00	29.912 
17:55	79.9	79.9	80.6	49	59.0	1	3	315	0.00	29.913 
18:00	79.8	79.8	80.5	48	58.3	1	3	315	0.00	29.908 
18:05	79.8	79.8	80.4	47	57.8	1	2	315	0.00	29.911 
18:10	79.6	79.6	80.4	49	58.7	1	2	315	0.00	29.907 
18:15	79.4	79.4	80.1	47	57.4	1	2	315	0.00	29.905 
18:20	79.4	79.4	80.2	49	58.5	1	2	315	0.00	29.907 
18:25	79.2	79.2	80.1	49	58.4	0	2	315	0.00	29.909 
18:30	79.2	79.2	80.1	49	58.4	0	2	315	0.00	29.909 
18:35	79.2	79.2	80.1	49	58.4	0	2	315	0.00	29.906 
18:40	79.2	79.2	80.1	50	58.9	0	1	315	0.00	29.906 
18:45	79.2	79.2	80.1	50	58.9	0	1	315	0.00	29.905 
18:50	79.0	79.0	80.0	50	58.7	0	1	315	0.00	29.905 
18:55	78.8	78.8	79.8	50	58.6	0	1	315	0.00	29.904 
19:00	78.5	78.5	79.6	51	58.8	0	2	315	0.00	29.903 
19:05	78.3	78.3	79.5	51	58.7	0	2	315	0.00	29.899 
19:10	77.9	77.9	79.2	50	57.7	0	1	315	0.00	29.898 
19:15	77.7	77.7	79.1	52	58.6	0	1	315	0.00	29.897 
19:20	77.6	77.6	79.0	52	58.6	0	1	315	0.00	29.895 
19:25	77.4	77.4	78.9	52	58.4	0	1	315	0.00	29.897 
19:30	77.2	77.2	78.8	52	58.2	0	1	315	0.00	29.895 
19:35	77.0	77.0	78.7	53	58.5	0	1	315	0.00	29.895 
19:40	76.8	76.8	78.6	54	58.9	0	0	---	0.00	29.891 
19:45	76.7	76.7	78.5	54	58.8	0	1	315	0.00	29.891 
19:50	76.7	76.7	78.5	55	59.3	0	1	315	0.00	29.892 
19:55	76.5	76.5	78.4	56	59.6	0	0	---	0.00	29.888 
20:00	76.1	76.1	78.1	57	59.7	0	0	---	0.00	29.886 
20:05	76.0	76.0	78.1	57	59.6	0	1	315	0.00	29.882 
20:10	75.8	75.8	77.9	58	59.9	0	1	315	0.00	29.882 
20:15	75.6	75.6	77.8	58	59.8	0	1	315	0.00	29.882 
20:20	75.6	75.6	77.8	58	59.8	0	1	315	0.00	29.883 
20:25	75.4	75.4	77.7	58	59.6	0	1	315	0.00	29.883 
20:30	75.3	75.3	77.6	59	60.0	0	1	315	0.00	29.883 
20:35	75.3	75.3	77.6	59	60.0	0	0	---	0.00	29.880 
20:40	75.1	75.1	77.4	60	60.2	0	0	---	0.00	29.881 
20:45	74.9	74.9	74.9	60	60.1	0	1	315	0.00	29.883 
20:50	74.7	74.7	74.7	60	59.9	0	0	---	0.00	29.883 
20:55	74.6	74.6	74.6	60	59.8	0	0	---	0.00	29.885 
21:00	74.6	74.6	74.6	61	60.2	0	0	---	0.00	29.884 
21:05	74.4	74.4	74.4	61	60.1	0	1	315	0.00	29.884 
21:10	74.2	74.2	74.2	61	59.9	0	0	---	0.00	29.880 
21:15	74.0	74.0	74.0	62	60.1	0	0	---	0.00	29.880 
21:20	73.9	73.9	73.9	62	60.0	0	0	---	0.00	29.880 
21:25	73.5	73.5	73.5	62	59.7	0	0	---	0.00	29.880 
21:30	73.3	73.3	73.3	62	59.5	0	0	---	0.00	29.883 
21:35	73.0	73.0	73.0	63	59.6	0	0	---	0.00	29.882 
21:40	72.7	72.7	72.7	64	59.8	0	0	---	0.00	29.883 
21:45	72.5	72.5	72.5	64	59.6	0	0	---	0.00	29.884 
21:50	72.1	72.1	72.1	65	59.7	0	0	---	0.00	29.883 
21:55	72.0	72.0	72.0	66	60.0	0	0	---	0.00	29.884 
22:00	71.6	71.6	71.6	67	60.0	0	0	---	0.00	29.884 
22:05	71.3	71.3	71.3	67	59.8	0	0	---	0.00	29.881 
22:10	71.1	71.1	71.1	68	60.0	0	0	---	0.00	29.882 
22:15	70.9	70.9	70.9	69	60.2	0	0	---	0.00	29.883 
22:20	70.8	70.8	70.8	69	60.1	0	0	---	0.00	29.883 
22:25	70.6	70.6	70.6	69	59.9	0	0	---	0.00	29.882 
22:30	70.6	70.6	70.6	69	59.9	0	0	---	0.00	29.883 
22:35	70.4	70.4	70.4	69	59.7	0	0	---	0.00	29.882 
22:40	70.4	70.4	70.4	69	59.7	0	0	---	0.00	29.883 
22:45	70.3	70.3	70.3	70	60.0	0	0	---	0.00	29.883 
22:50	70.1	70.1	70.1	70	59.8	0	0	---	0.00	29.882 
22:55	69.8	69.8	69.8	71	60.0	0	0	---	0.00	29.885 
23:00	69.6	69.6	69.6	71	59.8	0	0	---	0.00	29.883 
23:05	69.4	69.4	69.4	72	60.0	0	0	---	0.00	29.883 
23:10	69.3	69.3	69.3	72	59.9	0	0	---	0.00	29.883 
23:15	69.3	69.3	69.3	72	59.9	0	1	315	0.00	29.885 
23:20	69.4	69.4	69.4	71	59.6	0	0	---	0.00	29.884 
23:25	69.6	69.6	69.6	71	59.8	0	1	315	0.00	29.884 
23:30	69.6	69.6	69.6	70	59.4	0	1	315	0.00	29.886 
23:35	69.8	69.8	69.8	70	59.6	0	1	315	0.00	29.884 
23:40	69.8	69.8	69.8	70	59.6	0	1	315	0.00	29.882 
23:45	69.9	69.9	69.9	69	59.3	0	1	315	0.00	29.882 
23:50	69.9	69.9	69.9	68	58.8	0	1	315	0.00	29.882 
23:55	70.1	70.1	70.1	68	59.0	0	2	315	0.00	29.881 

CoCoRaHS
IN-AL-39
A2 Web Hosting
Creative Commons License
GoDaddy
Look for:

loaded 2017-10-16 20:18:45 • last modified 2010-11-18 10:43:29
Privacy PolicyDisclaimer
• wx.awcolley.com is powered by PmWiki v.2002016 •
• all content (unless otherwise noted) © 2017 A W Colley